sensor_id;sensor_type;location;lat;lon;timestamp;P1;durP1;ratioP1;P2;durP2;ratioP2
51560;SDS011;37654;51.262;17.058;2023-06-14T00:01:00;6.50;;;4.80;;
51560;SDS011;37654;51.262;17.058;2023-06-14T00:03:27;8.48;;;4.20;;
51560;SDS011;37654;51.262;17.058;2023-06-14T00:05:53;6.05;;;3.72;;
51560;SDS011;37654;51.262;17.058;2023-06-14T00:08:18;7.63;;;4.73;;
51560;SDS011;37654;51.262;17.058;2023-06-14T00:10:44;6.47;;;3.70;;
51560;SDS011;37654;51.262;17.058;2023-06-14T00:13:09;5.38;;;4.15;;
51560;SDS011;37654;51.262;17.058;2023-06-14T00:15:35;7.20;;;4.15;;
51560;SDS011;37654;51.262;17.058;2023-06-14T00:18:00;5.95;;;4.00;;
51560;SDS011;37654;51.262;17.058;2023-06-14T00:20:26;7.07;;;4.20;;
51560;SDS011;37654;51.262;17.058;2023-06-14T00:22:52;5.93;;;4.07;;
51560;SDS011;37654;51.262;17.058;2023-06-14T00:25:19;7.30;;;3.95;;
51560;SDS011;37654;51.262;17.058;2023-06-14T00:27:44;10.20;;;4.38;;
51560;SDS011;37654;51.262;17.058;2023-06-14T00:30:10;6.75;;;4.60;;
51560;SDS011;37654;51.262;17.058;2023-06-14T00:32:35;5.90;;;4.13;;
51560;SDS011;37654;51.262;17.058;2023-06-14T00:35:00;6.20;;;4.13;;
51560;SDS011;37654;51.262;17.058;2023-06-14T00:37:26;5.90;;;4.47;;
51560;SDS011;37654;51.262;17.058;2023-06-14T00:39:51;6.60;;;4.50;;
51560;SDS011;37654;51.262;17.058;2023-06-14T00:42:23;10.77;;;4.73;;
51560;SDS011;37654;51.262;17.058;2023-06-14T00:44:48;8.13;;;4.80;;
51560;SDS011;37654;51.262;17.058;2023-06-14T00:47:13;9.67;;;4.90;;
51560;SDS011;37654;51.262;17.058;2023-06-14T00:49:38;11.23;;;5.53;;
51560;SDS011;37654;51.262;17.058;2023-06-14T00:52:04;10.50;;;5.43;;
51560;SDS011;37654;51.262;17.058;2023-06-14T00:54:29;9.52;;;5.38;;
51560;SDS011;37654;51.262;17.058;2023-06-14T00:56:55;9.00;;;5.37;;
51560;SDS011;37654;51.262;17.058;2023-06-14T00:59:20;8.40;;;5.93;;
51560;SDS011;37654;51.262;17.058;2023-06-14T01:01:45;10.17;;;6.30;;
51560;SDS011;37654;51.262;17.058;2023-06-14T01:04:10;9.50;;;5.97;;
51560;SDS011;37654;51.262;17.058;2023-06-14T01:14:35;10.60;;;6.22;;
51560;SDS011;37654;51.262;17.058;2023-06-14T01:17:01;10.07;;;6.40;;
51560;SDS011;37654;51.262;17.058;2023-06-14T01:19:27;9.50;;;5.70;;
51560;SDS011;37654;51.262;17.058;2023-06-14T01:21:53;9.00;;;6.80;;
51560;SDS011;37654;51.262;17.058;2023-06-14T01:24:20;11.13;;;6.35;;
51560;SDS011;37654;51.262;17.058;2023-06-14T01:26:50;9.93;;;5.68;;
51560;SDS011;37654;51.262;17.058;2023-06-14T01:29:20;9.52;;;5.72;;
51560;SDS011;37654;51.262;17.058;2023-06-14T01:31:46;9.43;;;6.18;;
51560;SDS011;37654;51.262;17.058;2023-06-14T01:34:12;8.23;;;5.82;;
51560;SDS011;37654;51.262;17.058;2023-06-14T01:36:37;11.00;;;6.50;;
51560;SDS011;37654;51.262;17.058;2023-06-14T01:39:05;8.00;;;5.60;;
51560;SDS011;37654;51.262;17.058;2023-06-14T01:41:31;9.40;;;5.78;;
51560;SDS011;37654;51.262;17.058;2023-06-14T01:43:56;8.98;;;5.45;;
51560;SDS011;37654;51.262;17.058;2023-06-14T01:46:23;9.80;;;6.53;;
51560;SDS011;37654;51.262;17.058;2023-06-14T01:48:48;7.93;;;5.50;;
51560;SDS011;37654;51.262;17.058;2023-06-14T01:51:14;11.35;;;6.05;;
51560;SDS011;37654;51.262;17.058;2023-06-14T01:53:39;10.10;;;6.38;;
51560;SDS011;37654;51.262;17.058;2023-06-14T01:56:05;10.38;;;6.28;;
51560;SDS011;37654;51.262;17.058;2023-06-14T01:58:31;9.98;;;5.90;;
51560;SDS011;37654;51.262;17.058;2023-06-14T02:00:57;10.05;;;6.82;;
51560;SDS011;37654;51.262;17.058;2023-06-14T02:03:23;13.75;;;6.55;;
51560;SDS011;37654;51.262;17.058;2023-06-14T02:05:49;11.38;;;6.55;;
51560;SDS011;37654;51.262;17.058;2023-06-14T02:08:15;13.20;;;6.35;;
51560;SDS011;37654;51.262;17.058;2023-06-14T02:10:40;9.63;;;6.32;;
51560;SDS011;37654;51.262;17.058;2023-06-14T02:13:05;9.33;;;6.50;;
51560;SDS011;37654;51.262;17.058;2023-06-14T02:15:30;10.95;;;7.10;;
51560;SDS011;37654;51.262;17.058;2023-06-14T02:17:59;18.77;;;7.90;;
51560;SDS011;37654;51.262;17.058;2023-06-14T02:20:24;9.65;;;6.35;;
51560;SDS011;37654;51.262;17.058;2023-06-14T02:22:49;11.30;;;7.45;;
51560;SDS011;37654;51.262;17.058;2023-06-14T02:25:14;9.87;;;6.43;;
51560;SDS011;37654;51.262;17.058;2023-06-14T02:27:40;13.75;;;7.15;;
51560;SDS011;37654;51.262;17.058;2023-06-14T02:30:05;8.80;;;6.40;;
51560;SDS011;37654;51.262;17.058;2023-06-14T02:32:31;13.15;;;7.82;;
51560;SDS011;37654;51.262;17.058;2023-06-14T02:34:56;13.25;;;7.15;;
51560;SDS011;37654;51.262;17.058;2023-06-14T02:37:22;10.73;;;6.55;;
51560;SDS011;37654;51.262;17.058;2023-06-14T02:39:47;16.02;;;7.28;;
51560;SDS011;37654;51.262;17.058;2023-06-14T02:42:13;10.50;;;6.40;;
51560;SDS011;37654;51.262;17.058;2023-06-14T02:44:38;9.50;;;6.57;;
51560;SDS011;37654;51.262;17.058;2023-06-14T02:47:04;9.95;;;6.40;;
51560;SDS011;37654;51.262;17.058;2023-06-14T02:49:30;13.60;;;7.13;;
51560;SDS011;37654;51.262;17.058;2023-06-14T02:51:55;11.53;;;6.67;;
51560;SDS011;37654;51.262;17.058;2023-06-14T02:54:20;11.23;;;6.32;;
51560;SDS011;37654;51.262;17.058;2023-06-14T02:56:45;10.23;;;6.25;;
51560;SDS011;37654;51.262;17.058;2023-06-14T02:59:11;10.65;;;6.72;;
51560;SDS011;37654;51.262;17.058;2023-06-14T03:01:36;11.38;;;6.40;;
51560;SDS011;37654;51.262;17.058;2023-06-14T03:04:06;11.98;;;7.75;;
51560;SDS011;37654;51.262;17.058;2023-06-14T03:06:31;10.90;;;6.97;;
51560;SDS011;37654;51.262;17.058;2023-06-14T03:08:57;9.60;;;6.32;;
51560;SDS011;37654;51.262;17.058;2023-06-14T03:11:28;9.48;;;6.43;;
51560;SDS011;37654;51.262;17.058;2023-06-14T03:13:54;10.52;;;6.93;;
51560;SDS011;37654;51.262;17.058;2023-06-14T03:16:20;9.13;;;6.55;;
51560;SDS011;37654;51.262;17.058;2023-06-14T03:18:55;10.30;;;6.30;;
51560;SDS011;37654;51.262;17.058;2023-06-14T03:21:21;12.38;;;6.65;;
51560;SDS011;37654;51.262;17.058;2023-06-14T03:23:47;10.15;;;5.63;;
51560;SDS011;37654;51.262;17.058;2023-06-14T03:26:13;9.40;;;6.35;;
51560;SDS011;37654;51.262;17.058;2023-06-14T03:28:40;11.48;;;5.80;;
51560;SDS011;37654;51.262;17.058;2023-06-14T03:31:05;10.07;;;6.30;;
51560;SDS011;37654;51.262;17.058;2023-06-14T03:33:31;8.63;;;5.88;;
51560;SDS011;37654;51.262;17.058;2023-06-14T03:35:56;8.68;;;5.82;;
51560;SDS011;37654;51.262;17.058;2023-06-14T03:38:22;8.70;;;5.95;;
51560;SDS011;37654;51.262;17.058;2023-06-14T03:40:48;8.75;;;6.05;;
51560;SDS011;37654;51.262;17.058;2023-06-14T03:43:13;8.57;;;5.97;;
51560;SDS011;37654;51.262;17.058;2023-06-14T03:45:38;9.73;;;5.55;;
51560;SDS011;37654;51.262;17.058;2023-06-14T03:48:03;16.13;;;6.57;;
51560;SDS011;37654;51.262;17.058;2023-06-14T03:50:31;10.40;;;6.55;;
51560;SDS011;37654;51.262;17.058;2023-06-14T03:52:57;11.57;;;6.75;;
51560;SDS011;37654;51.262;17.058;2023-06-14T03:55:22;15.47;;;6.80;;
51560;SDS011;37654;51.262;17.058;2023-06-14T03:57:50;11.02;;;6.20;;
51560;SDS011;37654;51.262;17.058;2023-06-14T04:00:15;10.65;;;7.00;;
51560;SDS011;37654;51.262;17.058;2023-06-14T04:02:41;11.93;;;7.28;;
51560;SDS011;37654;51.262;17.058;2023-06-14T04:05:06;12.13;;;7.47;;
51560;SDS011;37654;51.262;17.058;2023-06-14T04:07:34;12.95;;;7.90;;
51560;SDS011;37654;51.262;17.058;2023-06-14T04:10:05;12.23;;;7.68;;
51560;SDS011;37654;51.262;17.058;2023-06-14T04:12:30;12.57;;;8.15;;
51560;SDS011;37654;51.262;17.058;2023-06-14T04:14:55;13.60;;;8.05;;
51560;SDS011;37654;51.262;17.058;2023-06-14T04:17:21;12.10;;;8.23;;
51560;SDS011;37654;51.262;17.058;2023-06-14T04:19:46;15.57;;;8.33;;
51560;SDS011;37654;51.262;17.058;2023-06-14T04:22:12;12.80;;;7.55;;
51560;SDS011;37654;51.262;17.058;2023-06-14T04:24:37;12.93;;;8.32;;
51560;SDS011;37654;51.262;17.058;2023-06-14T04:27:03;14.27;;;8.53;;
51560;SDS011;37654;51.262;17.058;2023-06-14T04:29:28;16.40;;;10.23;;
51560;SDS011;37654;51.262;17.058;2023-06-14T04:31:54;18.85;;;12.55;;
51560;SDS011;37654;51.262;17.058;2023-06-14T04:34:23;21.42;;;14.35;;
51560;SDS011;37654;51.262;17.058;2023-06-14T04:36:49;22.17;;;14.85;;
51560;SDS011;37654;51.262;17.058;2023-06-14T04:39:17;23.00;;;15.38;;
51560;SDS011;37654;51.262;17.058;2023-06-14T04:41:46;22.20;;;15.02;;
51560;SDS011;37654;51.262;17.058;2023-06-14T04:44:12;23.30;;;15.50;;
51560;SDS011;37654;51.262;17.058;2023-06-14T04:46:37;24.52;;;15.45;;
51560;SDS011;37654;51.262;17.058;2023-06-14T04:49:10;26.77;;;16.15;;
51560;SDS011;37654;51.262;17.058;2023-06-14T04:51:40;27.60;;;16.55;;
51560;SDS011;37654;51.262;17.058;2023-06-14T04:54:06;23.67;;;14.98;;
51560;SDS011;37654;51.262;17.058;2023-06-14T04:56:35;22.50;;;14.05;;
51560;SDS011;37654;51.262;17.058;2023-06-14T04:59:00;22.05;;;14.07;;
51560;SDS011;37654;51.262;17.058;2023-06-14T05:01:25;19.75;;;11.70;;
51560;SDS011;37654;51.262;17.058;2023-06-14T05:03:51;17.98;;;11.88;;
51560;SDS011;37654;51.262;17.058;2023-06-14T05:06:17;23.30;;;13.98;;
51560;SDS011;37654;51.262;17.058;2023-06-14T05:08:42;25.35;;;14.23;;
51560;SDS011;37654;51.262;17.058;2023-06-14T05:11:07;23.90;;;14.05;;
51560;SDS011;37654;51.262;17.058;2023-06-14T05:13:33;27.60;;;14.93;;
51560;SDS011;37654;51.262;17.058;2023-06-14T05:15:59;25.10;;;12.93;;
51560;SDS011;37654;51.262;17.058;2023-06-14T05:18:25;26.65;;;14.07;;
51560;SDS011;37654;51.262;17.058;2023-06-14T05:20:50;27.17;;;15.00;;
51560;SDS011;37654;51.262;17.058;2023-06-14T05:23:16;21.98;;;13.85;;
51560;SDS011;37654;51.262;17.058;2023-06-14T05:25:44;26.92;;;14.30;;
51560;SDS011;37654;51.262;17.058;2023-06-14T05:28:10;23.75;;;13.65;;
51560;SDS011;37654;51.262;17.058;2023-06-14T05:30:37;22.35;;;12.63;;
51560;SDS011;37654;51.262;17.058;2023-06-14T05:33:02;24.30;;;13.18;;
51560;SDS011;37654;51.262;17.058;2023-06-14T05:35:28;24.02;;;13.88;;
51560;SDS011;37654;51.262;17.058;2023-06-14T05:37:54;24.13;;;13.30;;
51560;SDS011;37654;51.262;17.058;2023-06-14T05:40:19;27.53;;;13.77;;
51560;SDS011;37654;51.262;17.058;2023-06-14T05:42:45;22.73;;;13.68;;
51560;SDS011;37654;51.262;17.058;2023-06-14T05:45:10;24.30;;;13.15;;
51560;SDS011;37654;51.262;17.058;2023-06-14T05:47:35;23.73;;;13.55;;
51560;SDS011;37654;51.262;17.058;2023-06-14T05:50:01;27.97;;;14.10;;
51560;SDS011;37654;51.262;17.058;2023-06-14T05:52:26;25.52;;;14.18;;
51560;SDS011;37654;51.262;17.058;2023-06-14T05:54:51;26.47;;;15.27;;
51560;SDS011;37654;51.262;17.058;2023-06-14T05:57:17;25.02;;;14.05;;
51560;SDS011;37654;51.262;17.058;2023-06-14T05:59:42;24.67;;;14.85;;
51560;SDS011;37654;51.262;17.058;2023-06-14T06:02:07;23.70;;;14.80;;
51560;SDS011;37654;51.262;17.058;2023-06-14T06:04:33;23.20;;;14.13;;
51560;SDS011;37654;51.262;17.058;2023-06-14T06:06:58;28.43;;;15.83;;
51560;SDS011;37654;51.262;17.058;2023-06-14T06:09:23;25.93;;;15.43;;
51560;SDS011;37654;51.262;17.058;2023-06-14T06:11:49;25.40;;;15.03;;
51560;SDS011;37654;51.262;17.058;2023-06-14T06:14:14;24.40;;;14.13;;
51560;SDS011;37654;51.262;17.058;2023-06-14T06:16:39;28.02;;;16.25;;
51560;SDS011;37654;51.262;17.058;2023-06-14T06:19:05;26.80;;;15.95;;
51560;SDS011;37654;51.262;17.058;2023-06-14T06:21:30;27.00;;;14.95;;
51560;SDS011;37654;51.262;17.058;2023-06-14T06:23:56;27.45;;;15.65;;
51560;SDS011;37654;51.262;17.058;2023-06-14T06:26:22;27.77;;;15.77;;
51560;SDS011;37654;51.262;17.058;2023-06-14T06:28:47;26.92;;;15.45;;
51560;SDS011;37654;51.262;17.058;2023-06-14T06:31:13;26.10;;;14.93;;
51560;SDS011;37654;51.262;17.058;2023-06-14T06:33:38;27.83;;;17.07;;
51560;SDS011;37654;51.262;17.058;2023-06-14T06:36:04;27.08;;;16.02;;
51560;SDS011;37654;51.262;17.058;2023-06-14T06:38:30;27.00;;;17.23;;
51560;SDS011;37654;51.262;17.058;2023-06-14T06:40:55;28.08;;;15.77;;
51560;SDS011;37654;51.262;17.058;2023-06-14T06:43:21;27.65;;;15.80;;
51560;SDS011;37654;51.262;17.058;2023-06-14T06:45:47;25.08;;;16.05;;
51560;SDS011;37654;51.262;17.058;2023-06-14T06:48:12;23.38;;;15.65;;
51560;SDS011;37654;51.262;17.058;2023-06-14T06:50:37;25.90;;;16.10;;
51560;SDS011;37654;51.262;17.058;2023-06-14T06:53:02;25.67;;;16.43;;
51560;SDS011;37654;51.262;17.058;2023-06-14T06:55:28;22.05;;;15.43;;
51560;SDS011;37654;51.262;17.058;2023-06-14T06:57:53;27.77;;;16.10;;
51560;SDS011;37654;51.262;17.058;2023-06-14T07:00:19;27.75;;;16.75;;
51560;SDS011;37654;51.262;17.058;2023-06-14T07:02:45;30.48;;;17.58;;
51560;SDS011;37654;51.262;17.058;2023-06-14T07:05:10;22.85;;;14.10;;
51560;SDS011;37654;51.262;17.058;2023-06-14T07:07:35;26.58;;;16.38;;
51560;SDS011;37654;51.262;17.058;2023-06-14T07:10:01;28.03;;;14.67;;
51560;SDS011;37654;51.262;17.058;2023-06-14T07:12:29;20.92;;;13.57;;
51560;SDS011;37654;51.262;17.058;2023-06-14T07:14:56;23.40;;;14.65;;
51560;SDS011;37654;51.262;17.058;2023-06-14T07:17:22;21.80;;;13.98;;
51560;SDS011;37654;51.262;17.058;2023-06-14T07:19:47;19.60;;;12.37;;
51560;SDS011;37654;51.262;17.058;2023-06-14T07:22:12;21.60;;;13.27;;
51560;SDS011;37654;51.262;17.058;2023-06-14T07:24:38;25.55;;;14.23;;
51560;SDS011;37654;51.262;17.058;2023-06-14T07:27:05;20.98;;;13.75;;
51560;SDS011;37654;51.262;17.058;2023-06-14T07:29:30;16.97;;;11.93;;
51560;SDS011;37654;51.262;17.058;2023-06-14T07:31:56;16.87;;;11.47;;
51560;SDS011;37654;51.262;17.058;2023-06-14T07:34:21;23.23;;;12.50;;
51560;SDS011;37654;51.262;17.058;2023-06-14T07:36:46;15.13;;;11.20;;
51560;SDS011;37654;51.262;17.058;2023-06-14T07:39:12;15.13;;;10.68;;
51560;SDS011;37654;51.262;17.058;2023-06-14T07:41:37;15.38;;;9.50;;
51560;SDS011;37654;51.262;17.058;2023-06-14T07:44:03;15.20;;;9.30;;
51560;SDS011;37654;51.262;17.058;2023-06-14T07:46:28;14.57;;;8.40;;
51560;SDS011;37654;51.262;17.058;2023-06-14T07:48:54;13.57;;;9.80;;
51560;SDS011;37654;51.262;17.058;2023-06-14T07:51:19;11.73;;;9.53;;
51560;SDS011;37654;51.262;17.058;2023-06-14T07:53:44;13.50;;;9.35;;
51560;SDS011;37654;51.262;17.058;2023-06-14T07:56:10;12.60;;;9.57;;
51560;SDS011;37654;51.262;17.058;2023-06-14T07:58:35;14.95;;;9.75;;
51560;SDS011;37654;51.262;17.058;2023-06-14T08:01:00;11.23;;;7.70;;
51560;SDS011;37654;51.262;17.058;2023-06-14T08:03:31;11.65;;;6.93;;
51560;SDS011;37654;51.262;17.058;2023-06-14T08:05:56;9.57;;;7.00;;
51560;SDS011;37654;51.262;17.058;2023-06-14T08:08:21;8.47;;;7.57;;
51560;SDS011;37654;51.262;17.058;2023-06-14T08:10:47;7.90;;;6.80;;
51560;SDS011;37654;51.262;17.058;2023-06-14T08:13:12;8.17;;;6.33;;
51560;SDS011;37654;51.262;17.058;2023-06-14T08:15:38;8.35;;;7.20;;
51560;SDS011;37654;51.262;17.058;2023-06-14T08:18:03;11.00;;;7.30;;
51560;SDS011;37654;51.262;17.058;2023-06-14T08:20:29;10.18;;;7.68;;
51560;SDS011;37654;51.262;17.058;2023-06-14T08:22:55;9.38;;;7.80;;
51560;SDS011;37654;51.262;17.058;2023-06-14T08:25:22;8.27;;;6.18;;
51560;SDS011;37654;51.262;17.058;2023-06-14T08:27:47;10.13;;;6.47;;
51560;SDS011;37654;51.262;17.058;2023-06-14T08:30:12;8.93;;;5.97;;
51560;SDS011;37654;51.262;17.058;2023-06-14T08:32:38;11.13;;;5.90;;
51560;SDS011;37654;51.262;17.058;2023-06-14T08:35:03;6.67;;;5.60;;
51560;SDS011;37654;51.262;17.058;2023-06-14T08:37:30;11.48;;;6.88;;
51560;SDS011;37654;51.262;17.058;2023-06-14T08:39:56;8.63;;;5.63;;
51560;SDS011;37654;51.262;17.058;2023-06-14T08:42:21;9.07;;;5.57;;
51560;SDS011;37654;51.262;17.058;2023-06-14T08:44:47;8.98;;;5.45;;
51560;SDS011;37654;51.262;17.058;2023-06-14T08:47:12;8.93;;;5.30;;
51560;SDS011;37654;51.262;17.058;2023-06-14T08:49:39;7.75;;;5.35;;
51560;SDS011;37654;51.262;17.058;2023-06-14T08:52:06;5.72;;;4.75;;
51560;SDS011;37654;51.262;17.058;2023-06-14T08:54:33;8.80;;;5.13;;
51560;SDS011;37654;51.262;17.058;2023-06-14T08:57:02;7.32;;;4.65;;
51560;SDS011;37654;51.262;17.058;2023-06-14T08:59:28;6.25;;;4.30;;
51560;SDS011;37654;51.262;17.058;2023-06-14T09:01:53;6.77;;;4.67;;
51560;SDS011;37654;51.262;17.058;2023-06-14T09:04:22;6.45;;;4.32;;
51560;SDS011;37654;51.262;17.058;2023-06-14T09:06:47;6.83;;;4.50;;
51560;SDS011;37654;51.262;17.058;2023-06-14T09:09:18;9.50;;;5.35;;
51560;SDS011;37654;51.262;17.058;2023-06-14T09:11:43;7.65;;;5.20;;
51560;SDS011;37654;51.262;17.058;2023-06-14T09:14:09;7.40;;;4.47;;
51560;SDS011;37654;51.262;17.058;2023-06-14T09:16:35;6.97;;;4.10;;
51560;SDS011;37654;51.262;17.058;2023-06-14T09:19:00;9.70;;;4.47;;
51560;SDS011;37654;51.262;17.058;2023-06-14T09:21:25;6.57;;;4.23;;
51560;SDS011;37654;51.262;17.058;2023-06-14T09:23:50;9.48;;;5.18;;
51560;SDS011;37654;51.262;17.058;2023-06-14T09:26:17;9.80;;;4.28;;
51560;SDS011;37654;51.262;17.058;2023-06-14T09:31:08;13.02;;;5.15;;
51560;SDS011;37654;51.262;17.058;2023-06-14T09:33:34;7.35;;;4.90;;
51560;SDS011;37654;51.262;17.058;2023-06-14T09:36:00;12.40;;;4.65;;
51560;SDS011;37654;51.262;17.058;2023-06-14T09:38:25;9.60;;;4.88;;
51560;SDS011;37654;51.262;17.058;2023-06-14T09:40:51;5.45;;;4.45;;
51560;SDS011;37654;51.262;17.058;2023-06-14T09:43:16;8.80;;;4.18;;
51560;SDS011;37654;51.262;17.058;2023-06-14T09:45:43;8.00;;;4.43;;
51560;SDS011;37654;51.262;17.058;2023-06-14T09:48:10;6.50;;;3.85;;
51560;SDS011;37654;51.262;17.058;2023-06-14T09:50:36;10.80;;;4.13;;
51560;SDS011;37654;51.262;17.058;2023-06-14T09:53:09;7.10;;;3.47;;
51560;SDS011;37654;51.262;17.058;2023-06-14T09:55:35;4.72;;;3.60;;
51560;SDS011;37654;51.262;17.058;2023-06-14T09:58:02;7.50;;;3.70;;
51560;SDS011;37654;51.262;17.058;2023-06-14T10:00:29;9.48;;;4.45;;
51560;SDS011;37654;51.262;17.058;2023-06-14T10:02:58;4.50;;;3.97;;
51560;SDS011;37654;51.262;17.058;2023-06-14T10:05:26;5.90;;;3.35;;
51560;SDS011;37654;51.262;17.058;2023-06-14T10:07:56;8.55;;;3.65;;
51560;SDS011;37654;51.262;17.058;2023-06-14T10:10:24;7.68;;;4.05;;
51560;SDS011;37654;51.262;17.058;2023-06-14T10:12:50;4.45;;;3.47;;
51560;SDS011;37654;51.262;17.058;2023-06-14T10:16:00;7.07;;;3.92;;
51560;SDS011;37654;51.262;17.058;2023-06-14T10:18:07;6.00;;;3.65;;
51560;SDS011;37654;51.262;17.058;2023-06-14T10:20:41;5.00;;;2.80;;
51560;SDS011;37654;51.262;17.058;2023-06-14T10:23:12;8.50;;;3.08;;
51560;SDS011;37654;51.262;17.058;2023-06-14T10:25:38;5.32;;;3.10;;
51560;SDS011;37654;51.262;17.058;2023-06-14T10:28:14;7.03;;;4.30;;
51560;SDS011;37654;51.262;17.058;2023-06-14T10:30:41;3.88;;;3.20;;
51560;SDS011;37654;51.262;17.058;2023-06-14T10:33:26;4.47;;;3.13;;
51560;SDS011;37654;51.262;17.058;2023-06-14T10:36:06;7.33;;;3.43;;
51560;SDS011;37654;51.262;17.058;2023-06-14T10:38:31;5.28;;;3.15;;
51560;SDS011;37654;51.262;17.058;2023-06-14T10:40:58;6.68;;;3.05;;
51560;SDS011;37654;51.262;17.058;2023-06-14T10:43:23;4.05;;;3.00;;
51560;SDS011;37654;51.262;17.058;2023-06-14T10:48:31;6.07;;;2.83;;
51560;SDS011;37654;51.262;17.058;2023-06-14T10:50:59;7.45;;;2.72;;
51560;SDS011;37654;51.262;17.058;2023-06-14T10:53:26;14.25;;;4.30;;
51560;SDS011;37654;51.262;17.058;2023-06-14T10:55:51;9.90;;;2.70;;
51560;SDS011;37654;51.262;17.058;2023-06-14T10:58:16;10.03;;;3.00;;
51560;SDS011;37654;51.262;17.058;2023-06-14T11:00:41;8.60;;;2.80;;
51560;SDS011;37654;51.262;17.058;2023-06-14T11:10:52;5.65;;;3.13;;
51560;SDS011;37654;51.262;17.058;2023-06-14T11:13:19;8.68;;;3.22;;
51560;SDS011;37654;51.262;17.058;2023-06-14T11:15:45;10.47;;;3.43;;
51560;SDS011;37654;51.262;17.058;2023-06-14T11:18:13;10.20;;;3.88;;
51560;SDS011;37654;51.262;17.058;2023-06-14T11:20:39;4.35;;;2.80;;
51560;SDS011;37654;51.262;17.058;2023-06-14T11:23:04;3.88;;;2.90;;
51560;SDS011;37654;51.262;17.058;2023-06-14T11:25:30;6.63;;;2.65;;
51560;SDS011;37654;51.262;17.058;2023-06-14T11:27:56;5.10;;;3.08;;
51560;SDS011;37654;51.262;17.058;2023-06-14T11:30:21;8.73;;;2.95;;
51560;SDS011;37654;51.262;17.058;2023-06-14T11:32:50;9.35;;;3.28;;
51560;SDS011;37654;51.262;17.058;2023-06-14T11:35:17;11.95;;;3.65;;
51560;SDS011;37654;51.262;17.058;2023-06-14T11:37:43;8.88;;;3.53;;
51560;SDS011;37654;51.262;17.058;2023-06-14T11:40:09;9.60;;;3.05;;
51560;SDS011;37654;51.262;17.058;2023-06-14T11:42:36;5.57;;;2.70;;
51560;SDS011;37654;51.262;17.058;2023-06-14T11:45:02;7.97;;;3.30;;
51560;SDS011;37654;51.262;17.058;2023-06-14T11:47:32;5.88;;;2.58;;
51560;SDS011;37654;51.262;17.058;2023-06-14T11:49:58;7.88;;;3.05;;
51560;SDS011;37654;51.262;17.058;2023-06-14T11:52:23;6.43;;;4.43;;
51560;SDS011;37654;51.262;17.058;2023-06-14T11:54:49;7.30;;;3.60;;
51560;SDS011;37654;51.262;17.058;2023-06-14T11:57:14;9.30;;;3.78;;
51560;SDS011;37654;51.262;17.058;2023-06-14T11:59:40;17.27;;;3.40;;
51560;SDS011;37654;51.262;17.058;2023-06-14T12:02:05;5.57;;;3.63;;
51560;SDS011;37654;51.262;17.058;2023-06-14T12:04:31;9.15;;;3.67;;
51560;SDS011;37654;51.262;17.058;2023-06-14T12:06:56;11.38;;;3.10;;
51560;SDS011;37654;51.262;17.058;2023-06-14T12:09:22;15.27;;;4.43;;
51560;SDS011;37654;51.262;17.058;2023-06-14T12:11:49;8.55;;;3.90;;
51560;SDS011;37654;51.262;17.058;2023-06-14T12:14:14;7.95;;;3.75;;
51560;SDS011;37654;51.262;17.058;2023-06-14T12:16:40;6.68;;;4.03;;
51560;SDS011;37654;51.262;17.058;2023-06-14T12:19:09;9.55;;;3.55;;
51560;SDS011;37654;51.262;17.058;2023-06-14T12:21:36;7.95;;;3.95;;
51560;SDS011;37654;51.262;17.058;2023-06-14T12:24:03;6.47;;;3.88;;
51560;SDS011;37654;51.262;17.058;2023-06-14T12:26:29;13.25;;;3.75;;
51560;SDS011;37654;51.262;17.058;2023-06-14T12:28:54;5.65;;;3.42;;
51560;SDS011;37654;51.262;17.058;2023-06-14T12:31:19;15.73;;;3.93;;
51560;SDS011;37654;51.262;17.058;2023-06-14T12:33:45;7.90;;;4.43;;
51560;SDS011;37654;51.262;17.058;2023-06-14T12:36:14;9.27;;;3.97;;
51560;SDS011;37654;51.262;17.058;2023-06-14T12:38:40;10.13;;;3.85;;
51560;SDS011;37654;51.262;17.058;2023-06-14T12:41:05;10.50;;;4.27;;
51560;SDS011;37654;51.262;17.058;2023-06-14T12:43:31;10.23;;;3.83;;
51560;SDS011;37654;51.262;17.058;2023-06-14T12:45:56;6.43;;;3.72;;
51560;SDS011;37654;51.262;17.058;2023-06-14T12:48:22;13.23;;;4.40;;
51560;SDS011;37654;51.262;17.058;2023-06-14T12:50:47;9.93;;;4.30;;
51560;SDS011;37654;51.262;17.058;2023-06-14T12:53:13;7.30;;;3.42;;
51560;SDS011;37654;51.262;17.058;2023-06-14T12:55:38;5.32;;;3.80;;
51560;SDS011;37654;51.262;17.058;2023-06-14T12:58:03;6.57;;;3.33;;
51560;SDS011;37654;51.262;17.058;2023-06-14T13:00:29;6.40;;;3.25;;
51560;SDS011;37654;51.262;17.058;2023-06-14T13:02:57;9.60;;;4.18;;
51560;SDS011;37654;51.262;17.058;2023-06-14T13:05:23;8.80;;;4.43;;
51560;SDS011;37654;51.262;17.058;2023-06-14T13:07:48;7.93;;;3.53;;
51560;SDS011;37654;51.262;17.058;2023-06-14T13:10:14;10.18;;;3.97;;
51560;SDS011;37654;51.262;17.058;2023-06-14T13:12:39;9.23;;;3.70;;
51560;SDS011;37654;51.262;17.058;2023-06-14T13:15:05;9.68;;;3.60;;
51560;SDS011;37654;51.262;17.058;2023-06-14T13:17:31;10.88;;;5.00;;
51560;SDS011;37654;51.262;17.058;2023-06-14T13:19:58;6.15;;;3.53;;
51560;SDS011;37654;51.262;17.058;2023-06-14T13:22:23;7.73;;;3.93;;
51560;SDS011;37654;51.262;17.058;2023-06-14T13:24:48;4.83;;;3.50;;
51560;SDS011;37654;51.262;17.058;2023-06-14T13:27:14;8.50;;;3.47;;
51560;SDS011;37654;51.262;17.058;2023-06-14T13:29:40;5.75;;;3.35;;
51560;SDS011;37654;51.262;17.058;2023-06-14T13:32:05;6.55;;;3.63;;
51560;SDS011;37654;51.262;17.058;2023-06-14T13:34:31;9.05;;;3.28;;
51560;SDS011;37654;51.262;17.058;2023-06-14T13:36:56;8.77;;;3.42;;
51560;SDS011;37654;51.262;17.058;2023-06-14T13:39:23;7.18;;;3.55;;
51560;SDS011;37654;51.262;17.058;2023-06-14T13:41:49;7.50;;;3.87;;
51560;SDS011;37654;51.262;17.058;2023-06-14T13:44:14;6.18;;;3.50;;
51560;SDS011;37654;51.262;17.058;2023-06-14T13:46:42;6.32;;;3.75;;
51560;SDS011;37654;51.262;17.058;2023-06-14T13:49:08;6.80;;;3.35;;
51560;SDS011;37654;51.262;17.058;2023-06-14T13:51:33;7.00;;;3.67;;
51560;SDS011;37654;51.262;17.058;2023-06-14T13:54:00;4.53;;;2.88;;
51560;SDS011;37654;51.262;17.058;2023-06-14T13:56:25;5.15;;;2.75;;
51560;SDS011;37654;51.262;17.058;2023-06-14T13:58:50;7.30;;;2.37;;
51560;SDS011;37654;51.262;17.058;2023-06-14T14:01:16;5.60;;;3.08;;
51560;SDS011;37654;51.262;17.058;2023-06-14T14:03:43;6.20;;;2.60;;
51560;SDS011;37654;51.262;17.058;2023-06-14T14:06:10;4.25;;;2.85;;
51560;SDS011;37654;51.262;17.058;2023-06-14T14:08:35;4.18;;;2.22;;
51560;SDS011;37654;51.262;17.058;2023-06-14T14:11:00;5.15;;;2.42;;
51560;SDS011;37654;51.262;17.058;2023-06-14T14:13:26;3.77;;;2.07;;
51560;SDS011;37654;51.262;17.058;2023-06-14T14:15:51;3.40;;;2.67;;
51560;SDS011;37654;51.262;17.058;2023-06-14T14:18:17;9.95;;;2.75;;
51560;SDS011;37654;51.262;17.058;2023-06-14T14:20:43;4.07;;;2.83;;
51560;SDS011;37654;51.262;17.058;2023-06-14T14:23:08;6.22;;;3.25;;
51560;SDS011;37654;51.262;17.058;2023-06-14T14:25:33;6.70;;;3.03;;
51560;SDS011;37654;51.262;17.058;2023-06-14T14:27:59;5.23;;;3.40;;
51560;SDS011;37654;51.262;17.058;2023-06-14T14:30:24;3.75;;;2.92;;
51560;SDS011;37654;51.262;17.058;2023-06-14T14:32:50;6.45;;;3.25;;
51560;SDS011;37654;51.262;17.058;2023-06-14T14:35:16;4.85;;;2.92;;
51560;SDS011;37654;51.262;17.058;2023-06-14T14:37:42;7.50;;;3.13;;
51560;SDS011;37654;51.262;17.058;2023-06-14T14:40:07;8.60;;;3.73;;